createdAt,value
2023-02-23T00:01:55.156Z,100418.88
2023-02-23T00:04:24.056Z,100417.06
2023-02-23T00:06:52.127Z,100416.38
2023-02-23T00:09:24.401Z,100418.31
2023-02-23T00:11:55.844Z,100422.88
2023-02-23T00:14:28.612Z,100414.81
2023-02-23T00:16:57.948Z,100419.41
2023-02-23T00:19:26.158Z,100421.91
2023-02-23T00:21:54.858Z,100417.59
2023-02-23T00:24:23.204Z,100417.72
2023-02-23T00:26:51.594Z,100413.28
2023-02-23T00:29:23.162Z,100415.78
2023-02-23T00:31:52.563Z,100408.00
2023-02-23T00:34:21.999Z,100408.13
2023-02-23T00:36:51.942Z,100393.25
2023-02-23T00:39:21.770Z,100405.75
2023-02-23T00:41:50.178Z,100407.41
2023-02-23T00:44:18.299Z,100397.00
2023-02-23T00:46:49.438Z,100398.53
2023-02-23T00:49:17.329Z,100394.22
2023-02-23T00:51:45.333Z,100396.03
2023-02-23T00:54:15.075Z,100397.97
2023-02-23T00:56:42.936Z,100392.69
2023-02-23T00:59:11.576Z,100385.59
2023-02-23T01:01:41.696Z,100399.63
2023-02-23T01:04:12.669Z,100396.28
2023-02-23T01:06:42.473Z,100397.56
2023-02-23T01:09:13.533Z,100394.66
2023-02-23T01:11:41.887Z,100388.66
2023-02-23T01:14:11.585Z,100379.72
2023-02-23T01:16:39.827Z,100397.13
2023-02-23T01:19:08.841Z,100377.94
2023-02-23T01:21:44.449Z,100392.00
2023-02-23T01:24:15.168Z,100394.66
2023-02-23T01:26:45.015Z,100398.94
2023-02-23T01:29:14.974Z,100390.22
2023-02-23T01:31:45.034Z,100389.88
2023-02-23T01:34:14.387Z,100385.31
2023-02-23T01:36:45.408Z,100390.72
2023-02-23T01:39:15.239Z,100386.88
2023-02-23T01:41:43.530Z,100392.41
2023-02-23T01:44:44.760Z,100388.34
2023-02-23T01:47:17.094Z,100393.50
2023-02-23T01:49:44.896Z,100386.53
2023-02-23T01:52:18.468Z,100393.50
2023-02-23T01:54:50.645Z,100388.22
2023-02-23T01:57:22.038Z,100393.50
2023-02-23T01:59:51.272Z,100387.25
2023-02-23T02:02:21.349Z,100391.81
2023-02-23T02:04:52.136Z,100376.50
2023-02-23T02:07:25.071Z,100389.88
2023-02-23T02:10:09.529Z,100374.72
2023-02-23T02:12:38.614Z,100390.16
2023-02-23T02:15:16.924Z,100391.81
2023-02-23T02:17:53.475Z,100388.22
2023-02-23T02:21:18.502Z,100385.13
2023-02-23T02:24:26.154Z,100384.28
2023-02-23T02:27:11.613Z,100383.75
2023-02-23T02:29:57.000Z,100387.34
2023-02-23T02:33:11.043Z,100379.00
2023-02-23T02:36:15.474Z,100387.63
2023-02-23T02:38:54.750Z,100372.44
2023-02-23T02:41:35.503Z,100377.06
2023-02-23T02:44:12.020Z,100376.22
2023-02-23T02:46:43.554Z,100371.66
2023-02-23T02:49:19.273Z,100368.19
2023-02-23T02:51:52.927Z,100376.09
2023-02-23T02:54:26.684Z,100371.53
2023-02-23T02:57:00.380Z,100367.91
2023-02-23T02:59:47.044Z,100366.25
2023-02-23T03:02:35.574Z,100369.00
2023-02-23T03:05:30.747Z,100375.13
2023-02-23T03:08:27.835Z,100366.25
2023-02-23T03:11:20.103Z,100365.53
2023-02-23T03:14:21.345Z,100372.50
2023-02-23T03:17:19.332Z,100368.88
2023-02-23T03:20:14.095Z,100373.44
2023-02-23T03:23:10.039Z,100371.78
2023-02-23T03:26:07.462Z,100371.91
2023-02-23T03:28:59.444Z,100378.16
2023-02-23T03:31:54.905Z,100378.41
2023-02-23T03:34:47.537Z,100380.09
2023-02-23T03:37:39.817Z,100387.88
2023-02-23T03:40:32.295Z,100380.66
2023-02-23T03:43:20.905Z,100384.25
2023-02-23T03:46:08.367Z,100384.25
2023-02-23T03:48:55.797Z,100385.94
2023-02-23T03:51:44.580Z,100384.25
2023-02-23T03:54:33.982Z,100386.19
2023-02-23T03:57:23.188Z,100388.97
2023-02-23T04:00:13.817Z,100390.63
2023-02-23T04:03:02.500Z,100374.78
2023-02-23T04:05:49.656Z,100386.31
2023-02-23T04:08:38.267Z,100386.31
2023-02-23T04:11:33.202Z,100371.44
2023-02-23T04:14:04.691Z,100389.09
2023-02-23T04:16:34.868Z,100394.94
2023-02-23T04:19:04.001Z,100397.47
2023-02-23T04:21:32.318Z,100399.25
2023-02-23T04:24:00.042Z,100396.88
2023-02-23T04:26:27.804Z,100401.06
2023-02-23T04:28:55.562Z,100397.84
2023-02-23T04:31:25.325Z,100406.72
2023-02-23T04:33:53.293Z,100403.13
2023-02-23T04:36:24.222Z,100409.94
2023-02-23T04:38:51.989Z,100409.94
2023-02-23T04:41:20.225Z,100403.69
2023-02-23T04:43:48.198Z,100403.69
2023-02-23T04:46:16.031Z,100400.34
2023-02-23T04:48:43.826Z,100408.25
2023-02-23T04:51:11.564Z,100409.22
2023-02-23T04:53:40.687Z,100403.00
2023-02-23T04:56:08.646Z,100415.47
2023-02-23T04:58:36.432Z,100409.22
2023-02-23T05:01:08.035Z,100412.84
2023-02-23T05:03:36.155Z,100405.88
2023-02-23T05:06:04.002Z,100407.84
2023-02-23T05:08:32.128Z,100409.78
2023-02-23T05:11:01.345Z,100408.09
2023-02-23T05:13:29.143Z,100427.53
2023-02-23T05:15:58.563Z,100415.31
2023-02-23T05:18:31.320Z,100408.47
2023-02-23T05:21:03.477Z,100413.31
2023-02-23T05:23:31.494Z,100400.78
2023-02-23T05:26:06.265Z,100425.41
2023-02-23T05:28:38.691Z,100424.69
2023-02-23T05:31:07.358Z,100424.69
2023-02-23T05:33:42.271Z,100428.28
2023-02-23T05:36:11.847Z,100428.16
2023-02-23T05:38:40.596Z,100424.81
2023-02-23T05:41:10.452Z,100433.56
2023-02-23T05:43:38.585Z,100432.88
2023-02-23T05:46:07.987Z,100439.00
2023-02-23T05:48:36.445Z,100435.53
2023-02-23T05:51:04.754Z,100433.84
2023-02-23T05:53:32.746Z,100432.19
2023-02-23T05:56:00.968Z,100434.81
2023-02-23T05:58:30.503Z,100438.41
2023-02-23T06:00:58.324Z,100439.38
2023-02-23T06:03:26.376Z,100438.41
2023-02-23T06:05:56.971Z,100434.94
2023-02-23T06:08:24.941Z,100445.50
2023-02-23T06:10:53.159Z,100443.69
2023-02-23T06:13:22.181Z,100434.34
2023-02-23T06:15:51.443Z,100448.84
2023-02-23T06:18:19.248Z,100442.72
2023-02-23T06:20:47.127Z,100445.63
2023-02-23T06:23:15.734Z,100456.88
2023-02-23T06:25:43.768Z,100450.75
2023-02-23T06:28:11.562Z,100448.97
2023-02-23T06:30:40.267Z,100443.72
2023-02-23T06:33:09.546Z,100457.97
2023-02-23T06:35:37.352Z,100455.31
2023-02-23T06:38:06.290Z,100462.41
2023-02-23T06:40:34.464Z,100446.38
2023-02-23T06:43:03.561Z,100464.06
2023-02-23T06:45:31.861Z,100470.44
2023-02-23T06:47:59.798Z,100472.34
2023-02-23T06:50:29.372Z,100446.19
2023-02-23T06:52:57.712Z,100466.59
2023-02-23T06:55:25.452Z,100469.34
2023-02-23T06:57:54.238Z,100486.84
2023-02-23T07:00:22.873Z,100491.28
2023-02-23T07:02:50.736Z,100487.69
2023-02-23T07:05:18.619Z,100491.03
2023-02-23T07:07:47.941Z,100495.59
2023-02-23T07:10:15.888Z,100492.13
2023-02-23T07:12:43.705Z,100502.66
2023-02-23T07:15:12.628Z,100504.34
2023-02-23T07:17:40.430Z,100506.25
2023-02-23T07:20:08.831Z,100512.38
2023-02-23T07:22:38.600Z,100508.06
2023-02-23T07:25:09.725Z,100487.41
2023-02-23T07:27:37.644Z,100515.13
2023-02-23T07:30:06.407Z,100525.69
2023-02-23T07:32:34.331Z,100525.69
2023-02-23T07:35:02.147Z,100527.38
2023-02-23T07:37:29.906Z,100517.06
2023-02-23T07:40:00.062Z,100536.00
2023-02-23T07:42:30.480Z,100532.38
2023-02-23T07:44:58.270Z,100532.38
2023-02-23T07:47:31.046Z,100536.00
2023-02-23T07:50:00.571Z,100541.50
2023-02-23T07:52:28.243Z,100534.31
2023-02-23T07:54:56.545Z,100537.91
2023-02-23T07:57:25.034Z,100544.88
2023-02-23T07:59:54.209Z,100536.00
2023-02-23T08:02:21.971Z,100528.09
2023-02-23T08:04:50.650Z,100543.06
2023-02-23T08:07:18.389Z,100544.03
2023-02-23T08:09:46.163Z,100548.47
2023-02-23T08:12:15.422Z,100548.47
2023-02-23T08:14:43.452Z,100548.47
2023-02-23T08:17:12.815Z,100551.22
2023-02-23T08:19:41.133Z,100549.78
2023-02-23T08:22:10.251Z,100554.56
2023-02-23T08:24:38.284Z,100559.97
2023-02-23T08:27:06.381Z,100565.97
2023-02-23T08:29:34.894Z,100567.63
2023-02-23T08:32:04.137Z,100563.44
2023-02-23T08:34:33.328Z,100551.34
2023-02-23T08:37:01.117Z,100567.88
2023-02-23T08:39:29.088Z,100564.53
2023-02-23T08:41:57.344Z,100566.44
2023-02-23T08:44:25.205Z,100566.31
2023-02-23T08:46:55.324Z,100571.47
2023-02-23T08:49:23.153Z,100578.69
2023-02-23T08:51:52.781Z,100579.28
2023-02-23T08:54:20.564Z,100570.63
2023-02-23T08:56:48.269Z,100579.38
2023-02-23T08:59:16.250Z,100571.00
2023-02-23T09:01:44.098Z,100580.09
2023-02-23T09:04:11.817Z,100586.34
2023-02-23T09:06:40.937Z,100579.03
2023-02-23T09:09:10.326Z,100590.91
2023-02-23T09:11:38.063Z,100593.41
2023-02-23T09:14:05.954Z,100571.53
2023-02-23T09:16:33.964Z,100590.78
2023-02-23T09:19:01.765Z,100573.09
2023-02-23T09:21:30.005Z,100594.00
2023-02-23T09:24:00.845Z,100598.44
2023-02-23T09:26:29.995Z,100594.00
2023-02-23T09:29:00.383Z,100595.09
2023-02-23T09:31:28.796Z,100595.69
2023-02-23T09:33:56.921Z,100591.38
2023-02-23T09:36:26.467Z,100599.03
2023-02-23T09:38:57.264Z,100598.19
2023-02-23T09:41:58.277Z,100604.16
2023-02-23T09:44:34.417Z,100611.22
2023-02-23T09:47:13.758Z,100610.16
2023-02-23T09:49:43.426Z,100609.06
2023-02-23T09:52:19.197Z,100618.66
2023-02-23T09:54:47.992Z,100611.00
2023-02-23T09:57:24.114Z,100620.47
2023-02-23T09:59:51.912Z,100614.34
2023-02-23T10:02:25.331Z,100620.47
2023-02-23T10:04:57.775Z,100623.94
2023-02-23T10:07:35.882Z,100621.53
2023-02-23T10:10:23.287Z,100631.84
2023-02-23T10:13:03.869Z,100629.44
2023-02-23T10:15:39.950Z,100629.44
2023-02-23T10:18:17.628Z,100638.81
2023-02-23T10:20:51.953Z,100626.81
2023-02-23T10:23:31.273Z,100637.97
2023-02-23T10:26:01.793Z,100630.69
2023-02-23T10:28:35.524Z,100626.84
2023-02-23T10:31:05.308Z,100638.31
2023-02-23T10:33:38.333Z,100640.84
2023-02-23T10:36:16.470Z,100641.25
2023-02-23T10:38:44.252Z,100646.25
2023-02-23T10:41:14.916Z,100629.50
2023-02-23T10:43:44.307Z,100647.69
2023-02-23T10:46:21.817Z,100647.78
2023-02-23T10:48:51.966Z,100645.03
2023-02-23T10:51:26.452Z,100648.75
2023-02-23T10:53:54.493Z,100658.22
2023-02-23T10:56:24.244Z,100658.09
2023-02-23T10:58:55.673Z,100634.84
2023-02-23T11:01:36.056Z,100651.75
2023-02-23T11:04:17.247Z,100646.34
2023-02-23T11:06:48.628Z,100649.34
2023-02-23T11:09:41.260Z,100654.63
2023-02-23T11:12:23.100Z,100643.84
2023-02-23T11:14:54.427Z,100643.84
2023-02-23T11:17:29.044Z,100640.47
2023-02-23T11:20:02.546Z,100646.97
2023-02-23T11:22:37.051Z,100653.03
2023-02-23T11:25:16.567Z,100656.91
2023-02-23T11:27:51.553Z,100642.63
2023-02-23T11:30:25.320Z,100657.75
2023-02-23T11:32:55.643Z,100646.22
2023-02-23T11:35:30.611Z,100648.88
2023-02-23T11:37:58.566Z,100652.19
2023-02-23T11:40:27.954Z,100647.91
2023-02-23T11:42:58.143Z,100651.50
2023-02-23T11:45:33.565Z,100643.84
2023-02-23T11:48:06.650Z,100640.22
2023-02-23T11:50:36.917Z,100641.91
2023-02-23T11:53:07.461Z,100640.00
2023-02-23T11:55:38.568Z,100633.28
2023-02-23T11:58:23.652Z,100637.47
2023-02-23T12:01:00.839Z,100639.28
2023-02-23T12:03:33.633Z,100627.56
2023-02-23T12:06:02.404Z,100641.56
2023-02-23T12:08:40.448Z,100640.75
2023-02-23T12:11:13.483Z,100650.69
2023-02-23T12:13:45.056Z,100631.25
2023-02-23T12:16:19.952Z,100618.81
2023-02-23T12:18:53.937Z,100640.97
2023-02-23T12:21:31.971Z,100643.72
2023-02-23T12:24:12.999Z,100636.41
2023-02-23T12:26:48.741Z,100639.03
2023-02-23T12:29:24.185Z,100637.13
2023-02-23T12:31:58.863Z,100633.75
2023-02-23T12:34:32.071Z,100630.41
2023-02-23T12:37:07.541Z,100638.69
2023-02-23T12:39:40.913Z,100624.81
2023-02-23T12:42:17.314Z,100630.69
2023-02-23T12:45:01.806Z,100628.72
2023-02-23T12:47:37.192Z,100633.06
2023-02-23T12:50:13.373Z,100641.69
2023-02-23T12:52:49.397Z,100650.22
2023-02-23T12:55:24.460Z,100647.06
2023-02-23T12:57:59.606Z,100644.31
2023-02-23T13:00:39.250Z,100633.69
2023-02-23T13:03:46.220Z,100646.25
2023-02-23T13:06:21.552Z,100638.44
2023-02-23T13:09:05.967Z,100632.09
2023-02-23T13:11:52.897Z,100638.09
2023-02-23T13:14:27.670Z,100640.59
2023-02-23T13:17:01.088Z,100643.13
2023-02-23T13:19:36.260Z,100648.16
2023-02-23T13:22:25.244Z,100633.34
2023-02-23T13:24:56.278Z,100634.41
2023-02-23T13:27:29.833Z,100653.72
2023-02-23T13:29:59.134Z,100632.75
2023-02-23T13:32:32.034Z,100645.78
2023-02-23T13:35:02.523Z,100644.13
2023-02-23T13:37:38.979Z,100648.69
2023-02-23T13:40:26.234Z,100643.88
2023-02-23T13:43:07.008Z,100650.34
2023-02-23T13:46:05.523Z,100647.72
2023-02-23T13:48:56.094Z,100637.66
2023-02-23T13:51:36.008Z,100652.63
2023-02-23T13:54:07.768Z,100650.78
2023-02-23T13:56:42.957Z,100655.72
2023-02-23T13:59:17.864Z,100654.75
2023-02-23T14:01:48.900Z,100662.41
2023-02-23T14:04:22.590Z,100653.78
2023-02-23T14:07:00.757Z,100633.56
2023-02-23T14:09:32.262Z,100631.66
2023-02-23T14:12:19.399Z,100661.34
2023-02-23T14:14:47.973Z,100665.84
2023-02-23T14:17:44.194Z,100654.81
2023-02-23T14:20:29.591Z,100661.28
2023-02-23T14:23:27.632Z,100661.75
2023-02-23T14:26:12.101Z,100654.56
2023-02-23T14:28:41.417Z,100651.94
2023-02-23T14:31:22.494Z,100654.56
2023-02-23T14:33:59.566Z,100623.69
2023-02-23T14:36:38.708Z,100660.41
2023-02-23T14:39:16.323Z,100655.97
2023-02-23T14:41:50.089Z,100659.56
2023-02-23T14:44:30.036Z,100656.22
2023-02-23T14:47:03.373Z,100661.00
2023-02-23T14:49:35.796Z,100659.56
2023-02-23T14:52:07.890Z,100662.47
2023-02-23T14:54:38.472Z,100646.91
2023-02-23T14:57:08.650Z,100662.59
2023-02-23T14:59:39.827Z,100663.56
2023-02-23T15:02:12.851Z,100656.25
2023-02-23T15:04:42.139Z,100669.22
2023-02-23T15:07:18.578Z,100671.13
2023-02-23T15:09:48.541Z,100671.13
2023-02-23T15:12:20.383Z,100660.56
2023-02-23T15:14:50.730Z,100661.03
2023-02-23T15:17:21.975Z,100668.72
2023-02-23T15:20:05.970Z,100671.34
2023-02-23T15:22:41.962Z,100672.31
2023-02-23T15:25:17.437Z,100674.25
2023-02-23T15:27:46.620Z,100652.47
2023-02-23T15:30:26.580Z,100663.47
2023-02-23T15:33:02.041Z,100659.13
2023-02-23T15:35:33.932Z,100680.94
2023-02-23T15:38:14.227Z,100676.16
2023-02-23T15:40:59.171Z,100678.69
2023-02-23T15:43:29.875Z,100676.16
2023-02-23T15:46:03.548Z,100677.38
2023-02-23T15:48:46.799Z,100672.22
2023-02-23T15:51:24.048Z,100671.88
2023-02-23T15:53:52.102Z,100669.50
2023-02-23T15:56:26.650Z,100680.53
2023-02-23T15:58:59.608Z,100658.03
2023-02-23T16:01:30.322Z,100684.38
2023-02-23T16:04:01.990Z,100689.63
2023-02-23T16:06:34.533Z,100679.31
2023-02-23T16:09:13.518Z,100670.25
2023-02-23T16:11:43.026Z,100687.47
2023-02-23T16:14:16.749Z,100677.03
2023-02-23T16:16:46.685Z,100644.63
2023-02-23T16:19:16.255Z,100669.78
2023-02-23T16:21:49.390Z,100664.75
2023-02-23T16:24:22.584Z,100669.28
2023-02-23T16:26:57.193Z,100508.28
2023-02-23T16:29:29.171Z,100675.03
2023-02-23T16:32:00.894Z,100673.13
2023-02-23T16:34:34.196Z,100644.88
2023-02-23T16:37:05.378Z,100679.47
2023-02-23T16:39:35.624Z,100669.09
2023-02-23T16:42:10.310Z,100682.25
2023-02-23T16:44:43.785Z,100682.25
2023-02-23T16:47:30.525Z,100639.13
2023-02-23T16:50:00.779Z,100594.59
2023-02-23T16:52:30.316Z,100682.72
2023-02-23T16:55:04.692Z,100568.97
2023-02-23T16:57:43.043Z,100673.63
2023-02-23T17:00:18.429Z,100658.53
2023-02-23T17:02:46.679Z,100672.44
2023-02-23T17:05:19.314Z,100669.78
2023-02-23T17:07:48.542Z,100677.00
2023-02-23T17:10:24.969Z,100680.59
2023-02-23T17:12:56.542Z,100679.63
2023-02-23T17:15:27.507Z,100675.31
2023-02-23T17:17:56.154Z,100466.78
2023-02-23T17:20:25.994Z,100677.94
2023-02-23T17:22:55.480Z,100674.09
2023-02-23T17:25:26.695Z,100685.38
2023-02-23T17:27:56.157Z,100688.72
2023-02-23T17:30:26.267Z,100676.50
2023-02-23T17:32:56.506Z,100687.06
2023-02-23T17:35:26.891Z,100684.31
2023-02-23T17:37:57.538Z,100696.16
2023-02-23T17:40:33.630Z,100691.72
2023-02-23T17:43:06.265Z,100684.78
2023-02-23T17:45:34.033Z,100694.75
2023-02-23T17:48:01.757Z,100693.06
2023-02-23T17:50:30.122Z,100692.09
2023-02-23T17:52:58.339Z,100686.13
2023-02-23T17:55:26.786Z,100682.00
2023-02-23T17:57:54.691Z,100674.84
2023-02-23T18:00:25.057Z,100693.28
2023-02-23T18:02:52.892Z,100691.59
2023-02-23T18:05:21.649Z,100696.88
2023-02-23T18:07:49.530Z,100668.34
2023-02-23T18:10:17.674Z,100683.09
2023-02-23T18:12:45.666Z,100698.66
2023-02-23T18:15:13.517Z,100704.03
2023-02-23T18:17:42.655Z,100707.53
2023-02-23T18:20:16.128Z,100715.44
2023-02-23T18:22:44.355Z,100704.78
2023-02-23T18:25:21.192Z,100708.25
2023-02-23T18:27:51.734Z,100709.09
2023-02-23T18:30:20.075Z,100693.97
2023-02-23T18:32:49.424Z,100714.34
2023-02-23T18:35:17.925Z,100717.75
2023-02-23T18:37:45.702Z,100723.03
2023-02-23T18:40:21.120Z,100725.84
2023-02-23T18:42:56.549Z,100698.66
2023-02-23T18:45:24.302Z,100722.19
2023-02-23T18:47:53.902Z,100723.22
2023-02-23T18:50:22.392Z,100719.63
2023-02-23T18:52:51.720Z,100717.75
2023-02-23T18:55:22.157Z,100704.50
2023-02-23T18:57:50.439Z,100718.91
2023-02-23T19:00:19.441Z,100717.22
2023-02-23T19:02:47.407Z,100717.09
2023-02-23T19:05:20.886Z,100726.63
2023-02-23T19:07:49.672Z,100715.13
2023-02-23T19:10:17.450Z,100710.78
2023-02-23T19:12:45.224Z,100708.16
2023-02-23T19:15:13.646Z,100704.69
2023-02-23T19:17:41.460Z,100704.69
2023-02-23T19:20:13.687Z,100705.00
2023-02-23T19:22:43.574Z,100706.81
2023-02-23T19:25:15.276Z,100705.97
2023-02-23T19:27:43.443Z,100694.72
2023-02-23T19:30:14.426Z,100708.72
2023-02-23T19:32:43.658Z,100711.47
2023-02-23T19:35:14.602Z,100708.81
2023-02-23T19:37:48.568Z,100712.56
2023-02-23T19:40:19.882Z,100718.91
2023-02-23T19:42:49.487Z,100704.78
2023-02-23T19:45:18.324Z,100708.50
2023-02-23T19:47:46.242Z,100670.00
2023-02-23T19:50:17.186Z,100698.53
2023-02-23T19:52:46.581Z,100710.28
2023-02-23T19:55:15.248Z,100715.31
2023-02-23T19:57:43.100Z,100711.13
2023-02-23T20:00:12.652Z,100707.75
2023-02-23T20:02:43.494Z,100711.25
2023-02-23T20:05:12.178Z,100714.00
2023-02-23T20:07:40.075Z,100710.50
2023-02-23T20:10:13.843Z,100717.69
2023-02-23T20:12:41.844Z,100700.09
2023-02-23T20:15:11.193Z,100727.41
2023-02-23T20:17:39.973Z,100722.97
2023-02-23T20:20:11.154Z,100719.38
2023-02-23T20:22:41.350Z,100685.81
2023-02-23T20:25:15.694Z,100727.41
2023-02-23T20:27:44.721Z,100719.50
2023-02-23T20:30:14.028Z,100723.47
2023-02-23T20:32:41.932Z,100724.88
2023-02-23T20:35:13.638Z,100716.25
2023-02-23T20:37:41.604Z,100719.59
2023-02-23T20:40:18.274Z,100709.34
2023-02-23T20:42:47.860Z,100713.63
2023-02-23T20:45:18.176Z,100711.25
2023-02-23T20:47:46.909Z,100720.34
2023-02-23T20:50:15.796Z,100702.84
2023-02-23T20:52:44.224Z,100701.16
2023-02-23T20:55:19.207Z,100711.69
2023-02-23T20:57:47.792Z,100714.00
2023-02-23T21:00:22.559Z,100711.94
2023-02-23T21:02:55.398Z,100724.88
2023-02-23T21:05:25.148Z,100722.00
2023-02-23T21:07:53.366Z,100730.59
2023-02-23T21:10:23.852Z,100724.63
2023-02-23T21:12:53.003Z,100729.06
2023-02-23T21:15:20.871Z,100722.34
2023-02-23T21:17:50.456Z,100690.69
2023-02-23T21:20:21.983Z,100698.13
2023-02-23T21:22:50.144Z,100720.28
2023-02-23T21:25:19.372Z,100718.00
2023-02-23T21:27:49.249Z,100722.78
2023-02-23T21:30:22.301Z,100714.16
2023-02-23T21:32:55.442Z,100696.56
2023-02-23T21:35:23.373Z,100716.94
2023-02-23T21:37:59.317Z,100713.34
2023-02-23T21:40:27.184Z,100719.44
2023-02-23T21:43:01.200Z,100711.44
2023-02-23T21:45:31.617Z,100703.53
2023-02-23T21:47:59.420Z,100707.13
2023-02-23T21:50:27.213Z,100707.13
2023-02-23T21:52:58.185Z,100703.78
2023-02-23T21:55:26.032Z,100703.63
2023-02-23T21:58:16.045Z,100698.38
2023-02-23T22:00:47.772Z,100693.47
2023-02-23T22:03:15.602Z,100682.22
2023-02-23T22:05:53.575Z,100690.84
2023-02-23T22:08:21.645Z,100644.72
2023-02-23T22:10:49.427Z,100699.81
2023-02-23T22:13:21.896Z,100658.75
2023-02-23T22:15:51.780Z,100695.41
2023-02-23T22:18:19.619Z,100690.25
2023-02-23T22:20:55.347Z,100665.91
2023-02-23T22:23:23.357Z,100672.66
2023-02-23T22:25:51.232Z,100682.44
2023-02-23T22:28:20.380Z,100686.88
2023-02-23T22:30:51.045Z,100675.03
2023-02-23T22:33:20.301Z,100684.97
2023-02-23T22:35:50.848Z,100663.06
2023-02-23T22:38:20.340Z,100683.41
2023-02-23T22:40:48.856Z,100676.72
2023-02-23T22:43:17.097Z,100680.88
2023-02-23T22:45:46.321Z,100675.63
2023-02-23T22:48:14.423Z,100673.81
2023-02-23T22:50:45.170Z,100666.41
2023-02-23T22:53:12.934Z,100675.16
2023-02-23T22:55:40.907Z,100674.19
2023-02-23T22:58:10.353Z,100667.97
2023-02-23T23:00:38.141Z,100669.78
2023-02-23T23:03:07.502Z,100668.56
2023-02-23T23:05:38.475Z,100667.97
2023-02-23T23:08:07.330Z,100663.91
2023-02-23T23:10:35.053Z,100659.25
2023-02-23T23:13:03.143Z,100651.13
2023-02-23T23:15:33.547Z,100645.59
2023-02-23T23:18:03.590Z,100655.78
2023-02-23T23:20:34.835Z,100656.94
2023-02-23T23:23:02.711Z,100651.81
2023-02-23T23:25:30.629Z,100644.84
2023-02-23T23:27:59.492Z,100647.03
2023-02-23T23:30:29.485Z,100645.19
2023-02-23T23:33:00.492Z,100633.72
2023-02-23T23:35:28.741Z,100639.34
2023-02-23T23:38:01.637Z,100640.19
2023-02-23T23:40:35.911Z,100636.84
2023-02-23T23:43:07.501Z,100580.19
2023-02-23T23:45:38.330Z,100591.69
2023-02-23T23:48:09.426Z,100643.56
2023-02-23T23:50:39.486Z,100643.91
2023-02-23T23:53:10.579Z,100639.34
2023-02-23T23:55:38.521Z,100634.09
2023-02-23T23:58:09.504Z,100635.38
